Terminal Aerodrome Forecast
Issued by NWS St Louis, MO

Home | Current Version | Previous Version | Text Only | Print | Product List | Glossary On
Versions: 1 2 3 4 5 6 7 8 9 10 11 12 13 14 15 16 17 18 19 20 21 22 23 24 25
000
FTUS43 KLSX 180904 AAA
TAFSTL
TAF AMD
KSTL 180904Z 1809/1912 10014KT P6SM BKN120
     FM181400 22012G27KT P6SM BKN080
     FM181800 29020G34KT P6SM BKN045
     FM190100 30014G25KT P6SM BKN035
     FM190600 31012KT P6SM SCT080=

USA.gov is the U.S. government's official web portal to all federal, state and local government web resources and services.